Terminal Aerodrome Forecast
Issued by NWS St Louis, MO

Home | Current Version | Previous Version | Text Only | Print | Product List | Glossary On
Versions: 1 2 3 4 5 6 7 8 9 10 11 12 13 14 15 16 17
493
FTUS43 KLSX 240530
TAFCOU
TAF
KCOU 240530Z 2406/2506 VRB05KT P6SM BKN150
     FM240800 18006KT P6SM VCSH SCT040 BKN150
     FM241500 19012KT P6SM SCT040 BKN120
     FM250100 18005KT P6SM BKN250=

USA.gov is the U.S. government's official web portal to all federal, state and local government web resources and services.